Time,TemperatureF,DewpointF,PressureIn,WindDirection,WindDirectionDegrees,WindSpeedMPH,WindSpeedGustMPH,Humidity,HourlyPrecipIn,Conditions,Clouds,dailyrainin,SoftwareType,DateUTC
2013-05-18 00:01:00,64.1,58.2,30.28,North,0,0.0,0.0,81,0.00,,,0.00,WUHU216HW,2013-05-18 05:01:00,
2013-05-18 00:06:00,63.9,58.0,30.28,North,0,0.0,0.0,81,0.00,,,0.00,WUHU216HW,2013-05-18 05:06:00,
2013-05-18 00:11:00,63.7,58.2,30.28,North,0,0.0,0.0,82,0.00,,,0.00,WUHU216HW,2013-05-18 05:11:00,
2013-05-18 00:16:00,63.4,57.4,30.27,North,0,0.0,0.0,81,0.00,,,0.00,WUHU216HW,2013-05-18 05:16:00,
2013-05-18 00:21:00,63.2,57.6,30.28,North,0,0.0,0.0,82,0.00,,,0.00,WUHU216HW,2013-05-18 05:21:00,
2013-05-18 00:26:00,63.0,57.4,30.28,North,0,0.0,0.0,82,0.00,,,0.00,WUHU216HW,2013-05-18 05:26:00,
2013-05-18 00:31:00,63.0,57.7,30.28,North,0,0.0,0.0,83,0.00,,,0.00,WUHU216HW,2013-05-18 05:31:00,
2013-05-18 00:36:00,62.8,57.3,30.28,North,0,0.0,0.0,82,0.00,,,0.00,WUHU216HW,2013-05-18 05:36:00,
2013-05-18 00:41:00,62.6,57.3,30.28,North,0,0.0,0.0,83,0.00,,,0.00,WUHU216HW,2013-05-18 05:41:00,
2013-05-18 00:46:00,62.6,57.3,30.28,North,0,0.0,0.0,83,0.00,,,0.00,WUHU216HW,2013-05-18 05:46:00,
2013-05-18 00:51:00,62.6,57.3,30.28,North,0,0.0,0.0,83,0.00,,,0.00,WUHU216HW,2013-05-18 05:51:00,
2013-05-18 00:56:00,62.5,56.9,30.28,North,0,0.0,0.0,82,0.00,,,0.00,WUHU216HW,2013-05-18 05:56:00,
2013-05-18 01:01:00,62.3,57.1,30.28,North,0,0.0,0.0,83,0.00,,,0.00,WUHU216HW,2013-05-18 06:01:00,
2013-05-18 01:06:00,62.1,56.9,30.28,North,0,0.0,0.0,83,0.00,,,0.00,WUHU216HW,2013-05-18 06:06:00,
2013-05-18 01:11:00,61.9,56.7,30.28,North,0,0.0,0.0,83,0.00,,,0.00,WUHU216HW,2013-05-18 06:11:00,
2013-05-18 01:16:00,61.6,56.7,30.28,North,0,0.0,0.0,84,0.00,,,0.00,WUHU216HW,2013-05-18 06:16:00,
2013-05-18 01:21:00,61.6,56.7,30.28,North,0,0.0,0.0,84,0.00,,,0.00,WUHU216HW,2013-05-18 06:21:00,
2013-05-18 01:26:00,61.6,56.3,30.28,North,0,0.0,0.0,83,0.00,,,0.00,WUHU216HW,2013-05-18 06:26:00,
2013-05-18 01:31:00,61.2,56.1,30.29,North,0,0.0,0.0,83,0.00,,,0.00,WUHU216HW,2013-05-18 06:31:00,
2013-05-18 01:36:00,61.0,55.9,30.29,North,0,0.0,0.0,83,0.00,,,0.00,WUHU216HW,2013-05-18 06:36:00,
2013-05-18 01:41:00,61.0,55.9,30.29,North,0,0.0,0.0,83,0.00,,,0.00,WUHU216HW,2013-05-18 06:41:00,
2013-05-18 01:46:00,60.8,55.7,30.30,North,0,0.0,0.0,83,0.00,,,0.00,WUHU216HW,2013-05-18 06:46:00,
2013-05-18 01:51:00,60.8,55.7,30.29,North,0,0.0,0.0,83,0.00,,,0.00,WUHU216HW,2013-05-18 06:51:00,
2013-05-18 01:56:00,60.7,55.5,30.30,North,0,0.0,0.0,83,0.00,,,0.00,WUHU216HW,2013-05-18 06:56:00,
2013-05-18 02:01:00,60.7,55.8,30.30,North,0,0.0,0.0,84,0.00,,,0.00,WUHU216HW,2013-05-18 07:01:00,
2013-05-18 02:06:00,60.5,55.6,30.30,North,0,0.0,0.0,84,0.00,,,0.00,WUHU216HW,2013-05-18 07:06:00,
2013-05-18 02:11:00,60.5,55.6,30.30,North,0,0.0,0.0,84,0.00,,,0.00,WUHU216HW,2013-05-18 07:11:00,
2013-05-18 02:16:00,60.5,56.0,30.30,North,0,0.0,0.0,85,0.00,,,0.00,WUHU216HW,2013-05-18 07:16:00,
2013-05-18 02:21:00,60.3,55.8,30.30,North,0,0.0,0.0,85,0.00,,,0.00,WUHU216HW,2013-05-18 07:21:00,
2013-05-18 02:26:00,60.1,55.6,30.30,North,0,0.0,0.0,85,0.00,,,0.00,WUHU216HW,2013-05-18 07:26:00,
2013-05-18 02:31:00,60.1,55.3,30.30,North,0,0.0,0.0,84,0.00,,,0.00,WUHU216HW,2013-05-18 07:31:00,
2013-05-18 02:36:00,60.1,55.6,30.30,North,0,0.0,0.0,85,0.00,,,0.00,WUHU216HW,2013-05-18 07:36:00,
2013-05-18 02:41:00,60.3,55.8,30.30,North,0,0.0,0.0,85,0.00,,,0.00,WUHU216HW,2013-05-18 07:41:00,
2013-05-18 02:46:00,60.5,56.0,30.30,North,0,0.0,0.0,85,0.00,,,0.00,WUHU216HW,2013-05-18 07:46:00,
2013-05-18 02:51:00,60.3,55.8,30.30,North,0,0.0,0.0,85,0.00,,,0.00,WUHU216HW,2013-05-18 07:51:00,
2013-05-18 02:56:00,60.1,55.6,30.30,North,0,0.0,0.0,85,0.00,,,0.00,WUHU216HW,2013-05-18 07:56:00,
2013-05-18 03:01:00,60.1,56.0,30.30,North,0,0.0,0.0,86,0.00,,,0.00,WUHU216HW,2013-05-18 08:01:00,
2013-05-18 03:06:00,60.1,56.0,30.30,North,0,0.0,0.0,86,0.00,,,0.00,WUHU216HW,2013-05-18 08:06:00,
2013-05-18 03:11:00,59.9,55.4,30.30,North,0,0.0,0.0,85,0.00,,,0.00,WUHU216HW,2013-05-18 08:11:00,
2013-05-18 03:16:00,59.9,55.4,30.30,North,0,0.0,0.0,85,0.00,,,0.00,WUHU216HW,2013-05-18 08:16:00,
2013-05-18 03:21:00,60.1,56.0,30.30,North,0,0.0,0.0,86,0.00,,,0.00,WUHU216HW,2013-05-18 08:21:00,
2013-05-18 03:26:00,60.1,56.3,30.30,North,0,0.0,0.0,87,0.00,,,0.00,WUHU216HW,2013-05-18 08:26:00,
2013-05-18 03:31:00,60.1,56.3,30.30,North,0,0.0,0.0,87,0.00,,,0.00,WUHU216HW,2013-05-18 08:31:00,
2013-05-18 03:36:00,59.8,55.6,30.30,North,0,0.0,0.0,86,0.00,,,0.00,WUHU216HW,2013-05-18 08:36:00,
2013-05-18 03:41:00,59.8,55.6,30.30,North,0,0.0,0.0,86,0.00,,,0.00,WUHU216HW,2013-05-18 08:41:00,
2013-05-18 03:46:00,59.8,55.6,30.30,North,0,0.0,0.0,86,0.00,,,0.00,WUHU216HW,2013-05-18 08:46:00,
2013-05-18 03:51:00,59.8,55.6,30.30,North,0,0.0,0.0,86,0.00,,,0.00,WUHU216HW,2013-05-18 08:51:00,
2013-05-18 03:56:00,59.8,55.6,30.30,North,0,0.0,0.0,86,0.00,,,0.00,WUHU216HW,2013-05-18 08:56:00,
2013-05-18 04:01:00,59.8,55.6,30.30,North,0,0.0,0.0,86,0.00,,,0.00,WUHU216HW,2013-05-18 09:01:00,
2013-05-18 04:06:00,59.6,55.7,30.30,North,0,0.0,0.0,87,0.00,,,0.00,WUHU216HW,2013-05-18 09:06:00,
2013-05-18 04:11:00,59.8,55.9,30.30,North,0,0.0,0.0,87,0.00,,,0.00,WUHU216HW,2013-05-18 09:11:00,
2013-05-18 04:16:00,59.8,55.9,30.30,North,0,0.0,0.0,87,0.00,,,0.00,WUHU216HW,2013-05-18 09:16:00,
2013-05-18 04:21:00,59.9,56.1,30.30,North,0,0.0,0.0,87,0.00,,,0.00,WUHU216HW,2013-05-18 09:21:00,
2013-05-18 04:26:00,59.9,56.1,30.30,North,0,0.0,0.0,87,0.00,,,0.00,WUHU216HW,2013-05-18 09:26:00,
2013-05-18 04:31:00,59.9,56.1,30.30,North,0,0.0,0.0,87,0.00,,,0.00,WUHU216HW,2013-05-18 09:31:00,
2013-05-18 04:36:00,60.1,56.3,30.30,North,0,0.0,0.0,87,0.00,,,0.00,WUHU216HW,2013-05-18 09:36:00,
2013-05-18 04:41:00,60.1,56.3,30.30,North,0,0.0,0.0,87,0.00,,,0.00,WUHU216HW,2013-05-18 09:41:00,
2013-05-18 04:46:00,60.1,56.3,30.30,North,0,0.0,0.0,87,0.00,,,0.00,WUHU216HW,2013-05-18 09:46:00,
2013-05-18 04:51:00,60.1,56.3,30.30,North,0,0.0,0.0,87,0.00,,,0.00,WUHU216HW,2013-05-18 09:51:00,
2013-05-18 04:56:00,60.1,56.3,30.30,North,0,0.0,0.0,87,0.00,,,0.00,WUHU216HW,2013-05-18 09:56:00,
2013-05-18 05:01:00,60.1,56.3,30.30,North,0,0.0,0.0,87,0.00,,,0.00,WUHU216HW,2013-05-18 10:01:00,
2013-05-18 05:06:00,60.1,56.3,30.30,North,0,0.0,0.0,87,0.00,,,0.00,WUHU216HW,2013-05-18 10:06:00,
2013-05-18 05:12:00,59.9,56.1,30.30,North,0,0.0,0.0,87,0.00,,,0.00,WUHU216HW,2013-05-18 10:12:00,
2013-05-18 05:17:00,59.9,56.1,30.30,North,0,0.0,0.0,87,0.00,,,0.00,WUHU216HW,2013-05-18 10:17:00,
2013-05-18 05:22:00,59.8,55.9,30.30,North,0,0.0,0.0,87,0.00,,,0.00,WUHU216HW,2013-05-18 10:22:00,
2013-05-18 05:27:00,59.8,55.9,30.30,North,0,0.0,0.0,87,0.00,,,0.00,WUHU216HW,2013-05-18 10:27:00,
2013-05-18 05:32:00,59.6,55.7,30.30,North,0,0.0,0.0,87,0.00,,,0.00,WUHU216HW,2013-05-18 10:32:00,
2013-05-18 05:37:00,59.4,55.5,30.30,North,0,0.0,0.0,87,0.00,,,0.00,WUHU216HW,2013-05-18 10:37:00,
2013-05-18 05:42:00,59.4,55.9,30.29,North,0,0.0,0.0,88,0.00,,,0.00,WUHU216HW,2013-05-18 10:42:00,
2013-05-18 05:47:00,59.4,55.9,30.29,North,0,0.0,0.0,88,0.00,,,0.00,WUHU216HW,2013-05-18 10:47:00,
2013-05-18 05:52:00,59.4,55.9,30.29,North,0,0.0,0.0,88,0.00,,,0.00,WUHU216HW,2013-05-18 10:52:00,
2013-05-18 05:57:00,59.4,56.2,30.29,North,0,0.0,0.0,89,0.00,,,0.00,WUHU216HW,2013-05-18 10:57:00,
2013-05-18 06:02:00,59.4,55.9,30.30,North,0,0.0,0.0,88,0.00,,,0.00,WUHU216HW,2013-05-18 11:02:00,
2013-05-18 06:07:00,59.8,56.5,30.30,North,0,0.0,0.0,89,0.00,,,0.00,WUHU216HW,2013-05-18 11:07:00,
2013-05-18 06:12:00,60.1,56.9,30.30,North,0,0.0,0.0,89,0.00,,,0.00,WUHU216HW,2013-05-18 11:12:00,
2013-05-18 06:17:00,60.7,57.4,30.30,North,0,0.0,0.0,89,0.00,,,0.00,WUHU216HW,2013-05-18 11:17:00,
2013-05-18 06:22:00,61.2,58.0,30.30,North,0,0.0,0.0,89,0.00,,,0.00,WUHU216HW,2013-05-18 11:22:00,
2013-05-18 06:27:00,61.9,58.7,30.30,North,0,0.0,0.0,89,0.00,,,0.00,WUHU216HW,2013-05-18 11:27:00,
2013-05-18 06:32:00,62.8,59.2,30.30,North,0,0.0,0.0,88,0.00,,,0.00,WUHU216HW,2013-05-18 11:32:00,
2013-05-18 06:37:00,63.7,59.9,30.30,North,0,0.0,0.0,87,0.00,,,0.00,WUHU216HW,2013-05-18 11:37:00,
2013-05-18 06:42:00,64.6,60.4,30.31,North,0,0.0,0.0,86,0.00,,,0.00,WUHU216HW,2013-05-18 11:42:00,
2013-05-18 06:47:00,65.3,60.8,30.31,North,0,0.0,0.0,85,0.00,,,0.00,WUHU216HW,2013-05-18 11:47:00,
2013-05-18 06:52:00,65.5,60.6,30.31,North,0,0.0,0.0,84,0.00,,,0.00,WUHU216HW,2013-05-18 11:52:00,
2013-05-18 06:57:00,65.3,60.4,30.31,North,0,0.0,0.0,84,0.00,,,0.00,WUHU216HW,2013-05-18 11:57:00,
2013-05-18 07:02:00,65.0,60.4,30.31,North,0,0.0,0.0,85,0.00,,,0.00,WUHU216HW,2013-05-18 12:02:00,
2013-05-18 07:07:00,64.8,60.2,30.31,North,0,0.0,0.0,85,0.00,,,0.00,WUHU216HW,2013-05-18 12:07:00,
2013-05-18 07:12:00,65.7,61.0,30.31,North,0,0.0,0.0,85,0.00,,,0.00,WUHU216HW,2013-05-18 12:12:00,
2013-05-18 07:17:00,67.3,62.0,30.31,North,0,0.0,0.0,83,0.00,,,0.00,WUHU216HW,2013-05-18 12:17:00,
2013-05-18 07:22:00,68.8,62.4,30.31,North,0,0.0,0.0,80,0.00,,,0.00,WUHU216HW,2013-05-18 12:22:00,
2013-05-18 07:27:00,69.7,62.8,30.31,North,0,0.0,0.0,79,0.00,,,0.00,WUHU216HW,2013-05-18 12:27:00,
2013-05-18 07:32:00,70.7,63.1,30.31,North,0,0.0,0.0,77,0.00,,,0.00,WUHU216HW,2013-05-18 12:32:00,
2013-05-18 07:37:00,70.9,62.9,30.31,North,0,0.0,0.0,76,0.00,,,0.00,WUHU216HW,2013-05-18 12:37:00,
2013-05-18 07:42:00,70.9,62.6,30.31,North,0,0.0,0.0,75,0.00,,,0.00,WUHU216HW,2013-05-18 12:42:00,
2013-05-18 07:47:00,70.4,62.4,30.31,North,0,0.0,0.0,76,0.00,,,0.00,WUHU216HW,2013-05-18 12:47:00,
2013-05-18 07:52:00,70.6,62.6,30.32,North,0,0.0,0.0,76,0.00,,,0.00,WUHU216HW,2013-05-18 12:52:00,
2013-05-18 07:57:00,70.9,62.9,30.31,North,0,0.0,0.0,76,0.00,,,0.00,WUHU216HW,2013-05-18 12:57:00,
2013-05-18 08:02:00,71.3,62.9,30.32,North,0,0.0,0.0,75,0.00,,,0.00,WUHU216HW,2013-05-18 13:02:00,
2013-05-18 08:07:00,71.3,62.9,30.32,North,0,0.0,0.0,75,0.00,,,0.00,WUHU216HW,2013-05-18 13:07:00,
2013-05-18 08:12:00,71.1,62.7,30.32,North,0,0.0,0.0,75,0.00,,,0.00,WUHU216HW,2013-05-18 13:12:00,
2013-05-18 08:17:00,71.1,62.7,30.32,North,0,0.0,0.0,75,0.00,,,0.00,WUHU216HW,2013-05-18 13:17:00,
2013-05-18 08:22:00,71.6,63.3,30.32,North,0,0.0,0.0,75,0.00,,,0.00,WUHU216HW,2013-05-18 13:22:00,
2013-05-18 08:27:00,72.0,63.3,30.32,North,0,0.0,0.0,74,0.00,,,0.00,WUHU216HW,2013-05-18 13:27:00,
2013-05-18 08:32:00,72.4,64.0,30.32,North,0,0.0,0.0,75,0.00,,,0.00,WUHU216HW,2013-05-18 13:32:00,
2013-05-18 08:37:00,72.9,64.5,30.32,North,0,0.0,0.0,75,0.00,,,0.00,WUHU216HW,2013-05-18 13:37:00,
2013-05-18 08:42:00,73.6,64.9,30.32,North,0,0.0,0.0,74,0.00,,,0.00,WUHU216HW,2013-05-18 13:42:00,
2013-05-18 08:47:00,74.3,65.2,30.32,North,0,0.0,0.0,73,0.00,,,0.00,WUHU216HW,2013-05-18 13:47:00,
2013-05-18 08:52:00,74.7,65.5,30.32,North,0,0.0,0.0,73,0.00,,,0.00,WUHU216HW,2013-05-18 13:52:00,
2013-05-18 08:57:00,75.8,65.7,30.32,North,0,0.0,0.0,71,0.00,,,0.00,WUHU216HW,2013-05-18 13:57:00,
2013-05-18 09:02:00,76.3,65.9,30.32,North,0,0.0,0.0,70,0.00,,,0.00,WUHU216HW,2013-05-18 14:02:00,
2013-05-18 09:07:00,76.1,65.7,30.32,North,0,0.0,0.0,70,0.00,,,0.00,WUHU216HW,2013-05-18 14:07:00,
2013-05-18 09:12:00,76.7,66.2,30.32,North,0,0.0,0.0,70,0.00,,,0.00,WUHU216HW,2013-05-18 14:12:00,
2013-05-18 09:17:00,77.0,66.2,30.31,North,0,0.0,0.0,69,0.00,,,0.00,WUHU216HW,2013-05-18 14:17:00,
2013-05-18 09:22:00,77.0,66.2,30.31,North,0,0.0,0.0,69,0.00,,,0.00,WUHU216HW,2013-05-18 14:22:00,
2013-05-18 09:27:00,76.7,65.8,30.31,North,0,0.0,0.0,69,0.00,,,0.00,WUHU216HW,2013-05-18 14:27:00,
2013-05-18 09:32:00,76.9,66.0,30.32,North,0,0.0,0.0,69,0.00,,,0.00,WUHU216HW,2013-05-18 14:32:00,
2013-05-18 09:37:00,77.6,66.3,30.31,North,0,0.0,0.0,68,0.00,,,0.00,WUHU216HW,2013-05-18 14:37:00,
2013-05-18 09:42:00,78.1,66.7,30.32,North,0,0.0,0.0,68,0.00,,,0.00,WUHU216HW,2013-05-18 14:42:00,
2013-05-18 09:47:00,78.3,66.4,30.31,North,0,0.0,0.0,67,0.00,,,0.00,WUHU216HW,2013-05-18 14:47:00,
2013-05-18 09:52:00,78.7,66.8,30.31,North,0,0.0,0.0,67,0.00,,,0.00,WUHU216HW,2013-05-18 14:52:00,
2013-05-18 09:57:00,79.2,66.9,30.32,North,0,0.0,0.0,66,0.00,,,0.00,WUHU216HW,2013-05-18 14:57:00,
2013-05-18 10:02:00,78.8,66.1,30.32,North,0,0.0,0.0,65,0.00,,,0.00,WUHU216HW,2013-05-18 15:02:00,
2013-05-18 10:07:00,78.3,66.0,30.32,North,0,0.0,0.0,66,0.00,,,0.00,WUHU216HW,2013-05-18 15:07:00,
2013-05-18 10:12:00,78.5,66.2,30.31,North,0,0.0,0.0,66,0.00,,,0.00,WUHU216HW,2013-05-18 15:12:00,
2013-05-18 10:17:00,78.7,66.3,30.31,North,0,0.0,0.0,66,0.00,,,0.00,WUHU216HW,2013-05-18 15:17:00,
2013-05-18 10:22:00,79.2,66.9,30.32,North,0,0.0,0.0,66,0.00,,,0.00,WUHU216HW,2013-05-18 15:22:00,
2013-05-18 10:27:00,79.6,66.3,30.32,North,0,0.0,0.0,64,0.00,,,0.00,WUHU216HW,2013-05-18 15:27:00,
2013-05-18 10:32:00,79.4,66.2,30.31,North,0,0.0,0.0,64,0.00,,,0.00,WUHU216HW,2013-05-18 15:32:00,
2013-05-18 10:37:00,79.7,66.1,30.31,North,0,0.0,0.0,63,0.00,,,0.00,WUHU216HW,2013-05-18 15:37:00,
2013-05-18 10:42:00,79.2,65.5,30.31,North,0,0.0,0.0,63,0.00,,,0.00,WUHU216HW,2013-05-18 15:42:00,
2013-05-18 10:47:00,79.2,66.0,30.31,North,0,0.0,0.0,64,0.00,,,0.00,WUHU216HW,2013-05-18 15:47:00,
2013-05-18 10:52:00,79.7,66.1,30.31,North,0,0.0,0.0,63,0.00,,,0.00,WUHU216HW,2013-05-18 15:52:00,
2013-05-18 10:57:00,80.3,66.5,30.31,North,0,0.0,0.0,63,0.00,,,0.00,WUHU216HW,2013-05-18 15:57:00,
2013-05-18 11:02:00,80.5,66.2,30.31,North,0,0.0,0.0,62,0.00,,,0.00,WUHU216HW,2013-05-18 16:02:00,
2013-05-18 11:07:00,80.3,66.1,30.31,North,0,0.0,0.0,62,0.00,,,0.00,WUHU216HW,2013-05-18 16:07:00,
2013-05-18 11:12:00,80.6,66.0,30.31,North,0,0.0,0.0,61,0.00,,,0.00,WUHU216HW,2013-05-18 16:12:00,
2013-05-18 11:17:00,81.4,65.6,30.31,North,0,0.0,0.0,59,0.00,,,0.00,WUHU216HW,2013-05-18 16:17:00,
2013-05-18 11:22:00,80.3,65.2,30.31,North,0,0.0,0.0,60,0.00,,,0.00,WUHU216HW,2013-05-18 16:22:00,
2013-05-18 11:27:00,81.0,65.9,30.31,North,0,0.0,0.0,60,0.00,,,0.00,WUHU216HW,2013-05-18 16:27:00,
2013-05-18 11:32:00,81.7,64.9,30.31,North,0,0.0,0.0,57,0.00,,,0.00,WUHU216HW,2013-05-18 16:32:00,
2013-05-18 11:37:00,81.2,65.0,30.31,North,0,0.0,0.0,58,0.00,,,0.00,WUHU216HW,2013-05-18 16:37:00,
2013-05-18 11:42:00,80.3,65.2,30.31,North,0,0.0,0.0,60,0.00,,,0.00,WUHU216HW,2013-05-18 16:42:00,
2013-05-18 11:47:00,81.2,66.0,30.31,North,0,0.0,0.0,60,0.00,,,0.00,WUHU216HW,2013-05-18 16:47:00,
2013-05-18 11:52:00,82.3,66.0,30.31,North,0,0.0,0.0,58,0.00,,,0.00,WUHU216HW,2013-05-18 16:52:00,
2013-05-18 11:57:00,83.5,66.7,30.31,North,0,0.0,0.0,57,0.00,,,0.00,WUHU216HW,2013-05-18 16:57:00,
2013-05-18 12:02:00,83.9,66.0,30.30,North,0,0.0,0.0,55,0.00,,,0.00,WUHU216HW,2013-05-18 17:02:00,
2013-05-18 12:07:00,83.3,65.4,30.30,North,0,0.0,0.0,55,0.00,,,0.00,WUHU216HW,2013-05-18 17:07:00,
2013-05-18 12:12:00,82.4,64.5,30.30,North,0,0.0,0.0,55,0.00,,,0.00,WUHU216HW,2013-05-18 17:12:00,
2013-05-18 12:17:00,81.2,63.9,30.30,North,0,0.0,0.0,56,0.00,,,0.00,WUHU216HW,2013-05-18 17:17:00,
2013-05-18 12:22:00,81.0,64.3,30.29,North,0,0.0,0.0,57,0.00,,,0.00,WUHU216HW,2013-05-18 17:22:00,
2013-05-18 12:27:00,80.8,63.6,30.29,North,0,0.0,0.0,56,0.00,,,0.00,WUHU216HW,2013-05-18 17:27:00,
2013-05-18 12:32:00,80.8,64.1,30.29,North,0,0.0,0.0,57,0.00,,,0.00,WUHU216HW,2013-05-18 17:32:00,
2013-05-18 12:37:00,81.7,64.9,30.29,North,0,0.0,0.0,57,0.00,,,0.00,WUHU216HW,2013-05-18 17:37:00,
2013-05-18 12:42:00,82.1,64.2,30.28,North,0,0.0,0.0,55,0.00,,,0.00,WUHU216HW,2013-05-18 17:42:00,
2013-05-18 12:47:00,82.1,64.7,30.27,North,0,0.0,0.0,56,0.00,,,0.00,WUHU216HW,2013-05-18 17:47:00,
2013-05-18 12:52:00,82.1,64.7,30.27,North,0,0.0,0.0,56,0.00,,,0.00,WUHU216HW,2013-05-18 17:52:00,
2013-05-18 12:57:00,82.1,63.7,30.28,North,0,0.0,0.0,54,0.00,,,0.00,WUHU216HW,2013-05-18 17:57:00,
2013-05-18 13:02:00,81.5,63.2,30.27,North,0,0.0,0.0,54,0.00,,,0.00,WUHU216HW,2013-05-18 18:02:00,
2013-05-18 13:07:00,81.0,63.7,30.27,North,0,0.0,0.0,56,0.00,,,0.00,WUHU216HW,2013-05-18 18:07:00,
2013-05-18 13:12:00,81.0,63.3,30.27,North,0,0.0,0.0,55,0.00,,,0.00,WUHU216HW,2013-05-18 18:12:00,
2013-05-18 13:17:00,81.0,63.3,30.27,North,0,0.0,0.0,55,0.00,,,0.00,WUHU216HW,2013-05-18 18:17:00,
2013-05-18 13:22:00,81.4,63.5,30.27,North,0,0.0,0.0,55,0.00,,,0.00,WUHU216HW,2013-05-18 18:22:00,
2013-05-18 13:27:00,81.0,63.3,30.27,North,0,0.0,0.0,55,0.00,,,0.00,WUHU216HW,2013-05-18 18:27:00,
2013-05-18 13:32:00,81.2,62.9,30.27,North,0,0.0,0.0,54,0.00,,,0.00,WUHU216HW,2013-05-18 18:32:00,
2013-05-18 13:37:00,81.4,63.0,30.27,North,0,0.0,0.0,54,0.00,,,0.00,WUHU216HW,2013-05-18 18:37:00,
2013-05-18 13:42:00,81.5,63.2,30.27,North,0,0.0,0.0,54,0.00,,,0.00,WUHU216HW,2013-05-18 18:42:00,
2013-05-18 13:47:00,81.9,63.0,30.26,North,0,0.0,0.0,53,0.00,,,0.00,WUHU216HW,2013-05-18 18:47:00,
2013-05-18 13:52:00,82.1,63.2,30.26,North,0,0.0,0.0,53,0.00,,,0.00,WUHU216HW,2013-05-18 18:52:00,
2013-05-18 13:57:00,81.7,62.3,30.26,North,0,0.0,0.0,52,0.00,,,0.00,WUHU216HW,2013-05-18 18:57:00,
2013-05-18 14:02:00,81.7,63.4,30.25,North,0,0.0,0.0,54,0.00,,,0.00,WUHU216HW,2013-05-18 19:02:00,
2013-05-18 14:07:00,81.7,63.9,30.25,North,0,0.0,0.0,55,0.00,,,0.00,WUHU216HW,2013-05-18 19:07:00,
2013-05-18 14:12:00,81.0,63.3,30.25,North,0,0.0,0.0,55,0.00,,,0.00,WUHU216HW,2013-05-18 19:12:00,
2013-05-18 14:17:00,81.0,63.3,30.25,North,0,0.0,0.0,55,0.00,,,0.00,WUHU216HW,2013-05-18 19:17:00,
2013-05-18 14:22:00,81.4,63.5,30.25,North,0,0.0,0.0,55,0.00,,,0.00,WUHU216HW,2013-05-18 19:22:00,
2013-05-18 14:27:00,81.5,63.7,30.25,North,0,0.0,0.0,55,0.00,,,0.00,WUHU216HW,2013-05-18 19:27:00,
2013-05-18 14:32:00,81.7,63.9,30.25,North,0,0.0,0.0,55,0.00,,,0.00,WUHU216HW,2013-05-18 19:32:00,
2013-05-18 14:37:00,81.5,62.6,30.25,North,0,0.0,0.0,53,0.00,,,0.00,WUHU216HW,2013-05-18 19:37:00,
2013-05-18 14:42:00,81.5,62.6,30.25,North,0,0.0,0.0,53,0.00,,,0.00,WUHU216HW,2013-05-18 19:42:00,
2013-05-18 14:47:00,81.5,62.6,30.25,North,0,0.0,0.0,53,0.00,,,0.00,WUHU216HW,2013-05-18 19:47:00,
2013-05-18 14:52:00,81.5,62.6,30.25,North,0,0.0,0.0,53,0.00,,,0.00,WUHU216HW,2013-05-18 19:52:00,
2013-05-18 14:57:00,81.7,63.4,30.25,North,0,0.0,0.0,54,0.00,,,0.00,WUHU216HW,2013-05-18 19:57:00,
2013-05-18 15:02:00,82.3,63.8,30.25,North,0,0.0,0.0,54,0.00,,,0.00,WUHU216HW,2013-05-18 20:02:00,
2013-05-18 15:07:00,82.8,63.8,30.25,North,0,0.0,0.0,53,0.00,,,0.00,WUHU216HW,2013-05-18 20:07:00,
2013-05-18 15:12:00,83.3,63.4,30.25,North,0,0.0,0.0,51,0.00,,,0.00,WUHU216HW,2013-05-18 20:12:00,
2013-05-18 15:17:00,84.1,65.1,30.24,North,0,0.0,0.0,53,0.00,,,0.00,WUHU216HW,2013-05-18 20:17:00,
2013-05-18 15:22:00,84.4,63.9,30.24,North,0,0.0,0.0,50,0.00,,,0.00,WUHU216HW,2013-05-18 20:22:00,
2013-05-18 15:27:00,84.8,64.7,30.24,North,0,0.0,0.0,51,0.00,,,0.00,WUHU216HW,2013-05-18 20:27:00,
2013-05-18 15:32:00,84.6,64.5,30.24,North,0,0.0,0.0,51,0.00,,,0.00,WUHU216HW,2013-05-18 20:32:00,
2013-05-18 15:37:00,84.2,64.3,30.24,North,0,0.0,0.0,51,0.00,,,0.00,WUHU216HW,2013-05-18 20:37:00,
2013-05-18 15:42:00,83.9,63.4,30.24,North,0,0.0,0.0,50,0.00,,,0.00,WUHU216HW,2013-05-18 20:42:00,
2013-05-18 15:47:00,83.0,63.0,30.24,North,0,0.0,0.0,51,0.00,,,0.00,WUHU216HW,2013-05-18 20:47:00,
2013-05-18 15:52:00,82.4,63.0,30.23,North,0,0.0,0.0,52,0.00,,,0.00,WUHU216HW,2013-05-18 20:52:00,
2013-05-18 15:57:00,82.3,62.3,30.23,North,0,0.0,0.0,51,0.00,,,0.00,WUHU216HW,2013-05-18 20:57:00,
2013-05-18 16:02:00,82.1,63.2,30.23,North,0,0.0,0.0,53,0.00,,,0.00,WUHU216HW,2013-05-18 21:02:00,
2013-05-18 16:07:00,82.1,62.6,30.23,North,0,0.0,0.0,52,0.00,,,0.00,WUHU216HW,2013-05-18 21:07:00,
2013-05-18 16:12:00,81.4,62.6,30.23,North,0,0.0,0.0,53,0.00,,,0.00,WUHU216HW,2013-05-18 21:12:00,
2013-05-18 16:17:00,81.0,62.7,30.24,North,0,0.0,0.0,54,0.00,,,0.00,WUHU216HW,2013-05-18 21:17:00,
2013-05-18 16:22:00,80.8,62.6,30.23,North,0,0.0,0.0,54,0.00,,,0.00,WUHU216HW,2013-05-18 21:22:00,
2013-05-18 16:27:00,81.0,62.2,30.23,North,0,0.0,0.0,53,0.00,,,0.00,WUHU216HW,2013-05-18 21:27:00,
2013-05-18 16:32:00,81.0,62.7,30.23,North,0,0.0,0.0,54,0.00,,,0.00,WUHU216HW,2013-05-18 21:32:00,
2013-05-18 16:37:00,81.2,62.9,30.23,North,0,0.0,0.0,54,0.00,,,0.00,WUHU216HW,2013-05-18 21:37:00,
2013-05-18 16:42:00,81.0,62.7,30.23,North,0,0.0,0.0,54,0.00,,,0.00,WUHU216HW,2013-05-18 21:42:00,
2013-05-18 16:47:00,81.0,62.2,30.22,North,0,0.0,0.0,53,0.00,,,0.00,WUHU216HW,2013-05-18 21:47:00,
2013-05-18 16:52:00,81.4,62.0,30.22,North,0,0.0,0.0,52,0.00,,,0.00,WUHU216HW,2013-05-18 21:52:00,
2013-05-18 16:57:00,81.4,62.6,30.22,North,0,0.0,0.0,53,0.00,,,0.00,WUHU216HW,2013-05-18 21:57:00,
2013-05-18 17:02:00,81.4,60.9,30.22,North,0,0.0,0.0,50,0.00,,,0.00,WUHU216HW,2013-05-18 22:02:00,
2013-05-18 17:07:00,81.4,61.5,30.22,North,0,0.0,0.0,51,0.00,,,0.00,WUHU216HW,2013-05-18 22:07:00,
2013-05-18 17:12:00,81.4,61.5,30.22,North,0,0.0,0.0,51,0.00,,,0.00,WUHU216HW,2013-05-18 22:12:00,
2013-05-18 17:17:00,81.5,61.7,30.22,North,0,0.0,0.0,51,0.00,,,0.00,WUHU216HW,2013-05-18 22:17:00,
2013-05-18 17:22:00,81.4,62.0,30.21,North,0,0.0,0.0,52,0.00,,,0.00,WUHU216HW,2013-05-18 22:22:00,
2013-05-18 17:27:00,81.4,62.0,30.22,North,0,0.0,0.0,52,0.00,,,0.00,WUHU216HW,2013-05-18 22:27:00,
2013-05-18 17:32:00,81.2,61.3,30.21,North,0,0.0,0.0,51,0.00,,,0.00,WUHU216HW,2013-05-18 22:32:00,
2013-05-18 17:37:00,81.0,61.7,30.21,North,0,0.0,0.0,52,0.00,,,0.00,WUHU216HW,2013-05-18 22:37:00,
2013-05-18 17:42:00,81.0,61.1,30.22,North,0,0.0,0.0,51,0.00,,,0.00,WUHU216HW,2013-05-18 22:42:00,
2013-05-18 17:47:00,80.6,60.9,30.21,North,0,0.0,0.0,51,0.00,,,0.00,WUHU216HW,2013-05-18 22:47:00,
2013-05-18 17:52:00,80.6,60.9,30.22,North,0,0.0,0.0,51,0.00,,,0.00,WUHU216HW,2013-05-18 22:52:00,
2013-05-18 17:57:00,80.5,60.7,30.22,North,0,0.0,0.0,51,0.00,,,0.00,WUHU216HW,2013-05-18 22:57:00,
2013-05-18 18:02:00,80.3,61.0,30.22,North,0,0.0,0.0,52,0.00,,,0.00,WUHU216HW,2013-05-18 23:02:00,
2013-05-18 18:07:00,80.3,61.0,30.22,North,0,0.0,0.0,52,0.00,,,0.00,WUHU216HW,2013-05-18 23:07:00,
2013-05-18 18:12:00,80.3,61.0,30.22,North,0,0.0,0.0,52,0.00,,,0.00,WUHU216HW,2013-05-18 23:12:00,
2013-05-18 18:17:00,80.3,61.0,30.22,North,0,0.0,0.0,52,0.00,,,0.00,WUHU216HW,2013-05-18 23:17:00,
2013-05-18 18:22:00,80.1,61.4,30.22,North,0,0.0,0.0,53,0.00,,,0.00,WUHU216HW,2013-05-18 23:22:00,
2013-05-18 18:27:00,79.9,61.2,30.21,North,0,0.0,0.0,53,0.00,,,0.00,WUHU216HW,2013-05-18 23:27:00,
2013-05-18 18:32:00,79.7,61.0,30.21,North,0,0.0,0.0,53,0.00,,,0.00,WUHU216HW,2013-05-18 23:32:00,
2013-05-18 18:37:00,79.7,61.0,30.21,North,0,0.0,0.0,53,0.00,,,0.00,WUHU216HW,2013-05-18 23:37:00,
2013-05-18 18:42:00,79.6,60.9,30.21,North,0,0.0,0.0,53,0.00,,,0.00,WUHU216HW,2013-05-18 23:42:00,
2013-05-18 18:47:00,79.6,60.9,30.20,North,0,0.0,0.0,53,0.00,,,0.00,WUHU216HW,2013-05-18 23:47:00,
2013-05-18 18:52:00,79.4,60.8,30.20,North,0,0.0,0.0,53,0.00,,,0.00,WUHU216HW,2013-05-18 23:52:00,
2013-05-18 18:57:00,79.0,60.4,30.20,North,0,0.0,0.0,53,0.00,,,0.00,WUHU216HW,2013-05-18 23:57:00,
2013-05-18 19:02:00,78.8,60.8,30.20,North,0,0.0,0.0,54,0.00,,,0.00,WUHU216HW,2013-05-19 00:02:00,
2013-05-18 19:07:00,78.8,60.2,30.21,North,0,0.0,0.0,53,0.00,,,0.00,WUHU216HW,2013-05-19 00:07:00,
2013-05-18 19:12:00,78.8,60.8,30.21,North,0,0.0,0.0,54,0.00,,,0.00,WUHU216HW,2013-05-19 00:12:00,
2013-05-18 19:17:00,78.7,60.6,30.21,North,0,0.0,0.0,54,0.00,,,0.00,WUHU216HW,2013-05-19 00:17:00,
2013-05-18 19:22:00,78.3,60.3,30.21,North,0,0.0,0.0,54,0.00,,,0.00,WUHU216HW,2013-05-19 00:22:00,
2013-05-18 19:27:00,78.1,60.1,30.21,North,0,0.0,0.0,54,0.00,,,0.00,WUHU216HW,2013-05-19 00:27:00,
2013-05-18 19:32:00,77.9,60.0,30.21,North,0,0.0,0.0,54,0.00,,,0.00,WUHU216HW,2013-05-19 00:32:00,
2013-05-18 19:37:00,77.8,60.3,30.21,North,0,0.0,0.0,55,0.00,,,0.00,WUHU216HW,2013-05-19 00:37:00,
2013-05-18 19:42:00,77.6,60.1,30.21,North,0,0.0,0.0,55,0.00,,,0.00,WUHU216HW,2013-05-19 00:42:00,
2013-05-18 19:47:00,77.4,60.0,30.21,North,0,0.0,0.0,55,0.00,,,0.00,WUHU216HW,2013-05-19 00:47:00,
2013-05-18 19:52:00,76.9,60.0,30.21,North,0,0.0,0.0,56,0.00,,,0.00,WUHU216HW,2013-05-19 00:52:00,
2013-05-18 19:57:00,76.5,60.1,30.22,North,0,0.0,0.0,57,0.00,,,0.00,WUHU216HW,2013-05-19 00:57:00,
2013-05-18 20:02:00,76.1,59.8,30.21,North,0,0.0,0.0,57,0.00,,,0.00,WUHU216HW,2013-05-19 01:02:00,
2013-05-18 20:07:00,76.0,60.1,30.22,North,0,0.0,0.0,58,0.00,,,0.00,WUHU216HW,2013-05-19 01:07:00,
2013-05-18 20:12:00,75.6,59.8,30.21,North,0,0.0,0.0,58,0.00,,,0.00,WUHU216HW,2013-05-19 01:12:00,
2013-05-18 20:17:00,75.2,59.9,30.21,North,0,0.0,0.0,59,0.00,,,0.00,WUHU216HW,2013-05-19 01:17:00,
2013-05-18 20:22:00,74.9,59.6,30.22,North,0,0.0,0.0,59,0.00,,,0.00,WUHU216HW,2013-05-19 01:22:00,
2013-05-18 20:27:00,74.5,59.8,30.21,North,0,0.0,0.0,60,0.00,,,0.00,WUHU216HW,2013-05-19 01:27:00,
2013-05-18 20:32:00,74.3,59.6,30.22,North,0,0.0,0.0,60,0.00,,,0.00,WUHU216HW,2013-05-19 01:32:00,
2013-05-18 20:37:00,73.8,59.5,30.21,North,0,0.0,0.0,61,0.00,,,0.00,WUHU216HW,2013-05-19 01:37:00,
2013-05-18 20:42:00,73.4,59.1,30.22,North,0,0.0,0.0,61,0.00,,,0.00,WUHU216HW,2013-05-19 01:42:00,
2013-05-18 20:47:00,73.1,59.2,30.22,North,0,0.0,0.0,62,0.00,,,0.00,WUHU216HW,2013-05-19 01:47:00,
2013-05-18 20:52:00,72.7,59.4,30.21,North,0,0.0,0.0,63,0.00,,,0.00,WUHU216HW,2013-05-19 01:52:00,
2013-05-18 20:57:00,72.5,59.2,30.21,North,0,0.0,0.0,63,0.00,,,0.00,WUHU216HW,2013-05-19 01:57:00,
2013-05-18 21:02:00,72.2,59.3,30.21,North,0,0.0,0.0,64,0.00,,,0.00,WUHU216HW,2013-05-19 02:02:00,
2013-05-18 21:07:00,72.0,59.1,30.21,North,0,0.0,0.0,64,0.00,,,0.00,WUHU216HW,2013-05-19 02:07:00,
2013-05-18 21:12:00,72.2,59.3,30.21,North,0,0.0,0.0,64,0.00,,,0.00,WUHU216HW,2013-05-19 02:12:00,
2013-05-18 21:17:00,72.0,59.6,30.21,North,0,0.0,0.0,65,0.00,,,0.00,WUHU216HW,2013-05-19 02:17:00,
2013-05-18 21:22:00,72.0,59.6,30.21,North,0,0.0,0.0,65,0.00,,,0.00,WUHU216HW,2013-05-19 02:22:00,
2013-05-18 21:27:00,72.2,60.2,30.21,North,0,0.0,0.0,66,0.00,,,0.00,WUHU216HW,2013-05-19 02:27:00,
2013-05-18 21:32:00,72.2,59.8,30.21,North,0,0.0,0.0,65,0.00,,,0.00,WUHU216HW,2013-05-19 02:32:00,
2013-05-18 21:37:00,72.2,59.8,30.21,North,0,0.0,0.0,65,0.00,,,0.00,WUHU216HW,2013-05-19 02:37:00,
2013-05-18 21:42:00,72.2,60.2,30.21,North,0,0.0,0.0,66,0.00,,,0.00,WUHU216HW,2013-05-19 02:42:00,
2013-05-18 21:47:00,72.2,60.2,30.21,North,0,0.0,0.0,66,0.00,,,0.00,WUHU216HW,2013-05-19 02:47:00,
2013-05-18 21:52:00,71.8,59.9,30.20,North,0,0.0,0.0,66,0.00,,,0.00,WUHU216HW,2013-05-19 02:52:00,
2013-05-18 21:57:00,71.6,59.7,30.20,North,0,0.0,0.0,66,0.00,,,0.00,WUHU216HW,2013-05-19 02:57:00,
2013-05-18 22:02:00,71.8,60.3,30.20,North,0,0.0,0.0,67,0.00,,,0.00,WUHU216HW,2013-05-19 03:02:00,
2013-05-18 22:07:00,72.0,60.4,30.20,North,0,0.0,0.0,67,0.00,,,0.00,WUHU216HW,2013-05-19 03:07:00,
2013-05-18 22:12:00,71.8,60.3,30.20,North,0,0.0,0.0,67,0.00,,,0.00,WUHU216HW,2013-05-19 03:12:00,
2013-05-18 22:18:00,71.6,60.1,30.20,North,0,0.0,0.0,67,0.00,,,0.00,WUHU216HW,2013-05-19 03:18:00,
2013-05-18 22:23:00,71.6,60.1,30.20,North,0,0.0,0.0,67,0.00,,,0.00,WUHU216HW,2013-05-19 03:23:00,
2013-05-18 22:28:00,71.6,59.7,30.20,North,0,0.0,0.0,66,0.00,,,0.00,WUHU216HW,2013-05-19 03:28:00,
2013-05-18 22:33:00,71.6,59.7,30.20,North,0,0.0,0.0,66,0.00,,,0.00,WUHU216HW,2013-05-19 03:33:00,
2013-05-18 22:38:00,71.3,59.3,30.20,North,0,0.0,0.0,66,0.00,,,0.00,WUHU216HW,2013-05-19 03:38:00,
2013-05-18 22:43:00,70.9,59.4,30.20,North,0,0.0,0.0,67,0.00,,,0.00,WUHU216HW,2013-05-19 03:43:00,
2013-05-18 22:48:00,70.6,59.5,30.20,North,0,0.0,0.0,68,0.00,,,0.00,WUHU216HW,2013-05-19 03:48:00,
2013-05-18 22:53:00,70.6,59.5,30.20,North,0,0.0,0.0,68,0.00,,,0.00,WUHU216HW,2013-05-19 03:53:00,
2013-05-18 22:58:00,70.4,59.7,30.20,North,0,0.0,0.0,69,0.00,,,0.00,WUHU216HW,2013-05-19 03:58:00,
2013-05-18 23:01:00,70.2,59.5,30.20,North,0,0.0,0.0,69,0.00,,,0.00,WUHU216HW,2013-05-19 04:01:00,
2013-05-18 23:06:00,70.0,59.3,30.20,North,0,0.0,0.0,69,0.00,,,0.00,WUHU216HW,2013-05-19 04:06:00,
2013-05-18 23:11:00,70.0,59.3,30.20,North,0,0.0,0.0,69,0.00,,,0.00,WUHU216HW,2013-05-19 04:11:00,
2013-05-18 23:16:00,69.8,59.6,30.19,North,0,0.0,0.0,70,0.00,,,0.00,WUHU216HW,2013-05-19 04:16:00,
2013-05-18 23:21:00,69.8,59.6,30.19,North,0,0.0,0.0,70,0.00,,,0.00,WUHU216HW,2013-05-19 04:21:00,
2013-05-18 23:26:00,70.0,59.8,30.19,North,0,0.0,0.0,70,0.00,,,0.00,WUHU216HW,2013-05-19 04:26:00,
2013-05-18 23:31:00,70.0,59.8,30.20,North,0,0.0,0.0,70,0.00,,,0.00,WUHU216HW,2013-05-19 04:31:00,
2013-05-18 23:36:00,70.0,59.8,30.19,North,0,0.0,0.0,70,0.00,,,0.00,WUHU216HW,2013-05-19 04:36:00,
2013-05-18 23:41:00,70.0,59.8,30.19,North,0,0.0,0.0,70,0.00,,,0.00,WUHU216HW,2013-05-19 04:41:00,
2013-05-18 23:46:00,70.0,59.8,30.19,North,0,0.0,0.0,70,0.00,,,0.00,WUHU216HW,2013-05-19 04:46:00,
2013-05-18 23:51:00,69.8,59.6,30.19,North,0,0.0,0.0,70,0.00,,,0.00,WUHU216HW,2013-05-19 04:51:00,
2013-05-18 23:56:00,69.7,59.4,30.19,North,0,0.0,0.0,70,0.00,,,0.00,WUHU216HW,2013-05-19 04:56:00,